sensor_id;sensor_type;location;lat;lon;timestamp;temperature;humidity
24632;DHT22;59977;48.782;9.190;2023-05-18T00:02:14;11.20;99.90
24632;DHT22;59977;48.782;9.190;2023-05-18T00:04:43;11.10;99.90
24632;DHT22;59977;48.782;9.190;2023-05-18T00:07:08;11.20;99.90
24632;DHT22;59977;48.782;9.190;2023-05-18T00:09:35;11.20;99.90
24632;DHT22;59977;48.782;9.190;2023-05-18T00:12:03;11.10;99.90
24632;DHT22;59977;48.782;9.190;2023-05-18T00:14:29;11.10;99.90
24632;DHT22;59977;48.782;9.190;2023-05-18T00:16:54;11.10;99.90
24632;DHT22;59977;48.782;9.190;2023-05-18T00:19:21;11.00;99.90
24632;DHT22;59977;48.782;9.190;2023-05-18T00:21:49;11.00;99.90
24632;DHT22;59977;48.782;9.190;2023-05-18T00:24:15;11.00;99.90
24632;DHT22;59977;48.782;9.190;2023-05-18T00:26:42;11.10;99.90
24632;DHT22;59977;48.782;9.190;2023-05-18T00:29:09;11.10;99.90
24632;DHT22;59977;48.782;9.190;2023-05-18T00:31:35;11.20;99.90
24632;DHT22;59977;48.782;9.190;2023-05-18T00:34:03;11.20;99.90
24632;DHT22;59977;48.782;9.190;2023-05-18T00:36:29;11.10;99.90
24632;DHT22;59977;48.782;9.190;2023-05-18T00:38:56;11.00;99.90
24632;DHT22;59977;48.782;9.190;2023-05-18T00:41:21;11.00;99.90
24632;DHT22;59977;48.782;9.190;2023-05-18T00:43:47;11.10;99.90
24632;DHT22;59977;48.782;9.190;2023-05-18T00:46:13;11.10;99.90
24632;DHT22;59977;48.782;9.190;2023-05-18T00:48:38;10.90;99.90
24632;DHT22;59977;48.782;9.190;2023-05-18T00:51:04;11.00;99.90
24632;DHT22;59977;48.782;9.190;2023-05-18T00:53:31;11.00;99.90
24632;DHT22;59977;48.782;9.190;2023-05-18T00:55:58;11.00;99.90
24632;DHT22;59977;48.782;9.190;2023-05-18T00:58:24;11.00;99.90
24632;DHT22;59977;48.782;9.190;2023-05-18T01:00:51;11.00;99.90
24632;DHT22;59977;48.782;9.190;2023-05-18T01:03:17;10.90;99.90
24632;DHT22;59977;48.782;9.190;2023-05-18T01:05:46;11.70;99.90
24632;DHT22;59977;48.782;9.190;2023-05-18T01:08:17;11.00;99.90
24632;DHT22;59977;48.782;9.190;2023-05-18T01:10:45;11.00;99.90
24632;DHT22;59977;48.782;9.190;2023-05-18T01:13:42;11.00;99.90
24632;DHT22;59977;48.782;9.190;2023-05-18T01:16:15;10.90;99.90
24632;DHT22;59977;48.782;9.190;2023-05-18T01:18:54;10.80;99.90
24632;DHT22;59977;48.782;9.190;2023-05-18T01:24:42;10.80;99.90
24632;DHT22;59977;48.782;9.190;2023-05-18T01:27:10;10.70;99.90
24632;DHT22;59977;48.782;9.190;2023-05-18T01:29:39;10.60;99.90
24632;DHT22;59977;48.782;9.190;2023-05-18T01:32:08;10.60;99.90
24632;DHT22;59977;48.782;9.190;2023-05-18T01:34:34;10.60;99.90
24632;DHT22;59977;48.782;9.190;2023-05-18T01:36:59;10.60;99.90
24632;DHT22;59977;48.782;9.190;2023-05-18T01:39:25;10.60;99.90
24632;DHT22;59977;48.782;9.190;2023-05-18T01:41:58;10.50;99.90
24632;DHT22;59977;48.782;9.190;2023-05-18T01:44:50;10.50;99.90
24632;DHT22;59977;48.782;9.190;2023-05-18T01:47:18;10.50;99.90
24632;DHT22;59977;48.782;9.190;2023-05-18T01:50:09;10.50;99.90
24632;DHT22;59977;48.782;9.190;2023-05-18T01:53:23;10.50;99.90
24632;DHT22;59977;48.782;9.190;2023-05-18T01:55:49;10.50;99.90
24632;DHT22;59977;48.782;9.190;2023-05-18T01:58:18;10.40;99.90
24632;DHT22;59977;48.782;9.190;2023-05-18T02:00:45;10.40;99.90
24632;DHT22;59977;48.782;9.190;2023-05-18T02:03:12;10.40;99.90
24632;DHT22;59977;48.782;9.190;2023-05-18T02:05:38;10.40;99.90
24632;DHT22;59977;48.782;9.190;2023-05-18T02:08:04;10.40;99.90
24632;DHT22;59977;48.782;9.190;2023-05-18T02:10:30;10.30;99.90
24632;DHT22;59977;48.782;9.190;2023-05-18T02:12:55;10.30;99.90
24632;DHT22;59977;48.782;9.190;2023-05-18T02:15:21;10.20;99.90
24632;DHT22;59977;48.782;9.190;2023-05-18T02:17:47;10.20;99.90
24632;DHT22;59977;48.782;9.190;2023-05-18T02:20:13;10.20;99.90
24632;DHT22;59977;48.782;9.190;2023-05-18T02:22:43;10.20;99.90
24632;DHT22;59977;48.782;9.190;2023-05-18T02:25:09;10.10;99.90
24632;DHT22;59977;48.782;9.190;2023-05-18T02:27:34;10.10;99.90
24632;DHT22;59977;48.782;9.190;2023-05-18T02:30:02;10.10;99.90
24632;DHT22;59977;48.782;9.190;2023-05-18T02:32:29;10.00;99.90
24632;DHT22;59977;48.782;9.190;2023-05-18T02:34:57;10.00;99.90
24632;DHT22;59977;48.782;9.190;2023-05-18T02:37:26;10.00;99.90
24632;DHT22;59977;48.782;9.190;2023-05-18T02:39:52;10.10;99.90
24632;DHT22;59977;48.782;9.190;2023-05-18T02:42:18;10.00;99.90
24632;DHT22;59977;48.782;9.190;2023-05-18T02:44:43;10.00;99.90
24632;DHT22;59977;48.782;9.190;2023-05-18T02:49:43;9.80;99.90
24632;DHT22;59977;48.782;9.190;2023-05-18T02:52:09;10.20;99.90
24632;DHT22;59977;48.782;9.190;2023-05-18T02:54:34;11.60;99.90
24632;DHT22;59977;48.782;9.190;2023-05-18T02:57:00;9.80;99.90
24632;DHT22;59977;48.782;9.190;2023-05-18T02:59:26;9.70;99.90
24632;DHT22;59977;48.782;9.190;2023-05-18T03:01:51;9.70;99.90
24632;DHT22;59977;48.782;9.190;2023-05-18T03:04:17;9.70;99.90
24632;DHT22;59977;48.782;9.190;2023-05-18T03:06:42;9.70;99.90
24632;DHT22;59977;48.782;9.190;2023-05-18T03:09:10;9.70;99.90
24632;DHT22;59977;48.782;9.190;2023-05-18T03:11:36;9.70;99.90
24632;DHT22;59977;48.782;9.190;2023-05-18T03:14:01;10.10;99.90
24632;DHT22;59977;48.782;9.190;2023-05-18T03:16:27;9.70;99.90
24632;DHT22;59977;48.782;9.190;2023-05-18T03:18:54;9.70;99.90
24632;DHT22;59977;48.782;9.190;2023-05-18T03:21:23;9.70;99.90
24632;DHT22;59977;48.782;9.190;2023-05-18T03:23:48;9.70;99.90
24632;DHT22;59977;48.782;9.190;2023-05-18T03:26:15;9.70;99.90
24632;DHT22;59977;48.782;9.190;2023-05-18T03:28:41;9.70;99.90
24632;DHT22;59977;48.782;9.190;2023-05-18T03:31:06;9.60;99.90
24632;DHT22;59977;48.782;9.190;2023-05-18T03:33:32;9.60;99.90
24632;DHT22;59977;48.782;9.190;2023-05-18T03:36:02;9.60;99.90
24632;DHT22;59977;48.782;9.190;2023-05-18T03:38:28;9.60;99.90
24632;DHT22;59977;48.782;9.190;2023-05-18T03:40:53;9.60;99.90
24632;DHT22;59977;48.782;9.190;2023-05-18T03:43:20;9.60;99.90
24632;DHT22;59977;48.782;9.190;2023-05-18T03:45:45;9.60;99.90
24632;DHT22;59977;48.782;9.190;2023-05-18T03:48:11;9.60;99.90
24632;DHT22;59977;48.782;9.190;2023-05-18T03:50:36;9.60;99.90
24632;DHT22;59977;48.782;9.190;2023-05-18T03:53:02;9.60;99.90
24632;DHT22;59977;48.782;9.190;2023-05-18T03:55:28;9.60;99.90
24632;DHT22;59977;48.782;9.190;2023-05-18T03:57:54;9.60;99.90
24632;DHT22;59977;48.782;9.190;2023-05-18T04:00:20;9.60;99.90
24632;DHT22;59977;48.782;9.190;2023-05-18T04:02:46;9.60;99.90
24632;DHT22;59977;48.782;9.190;2023-05-18T04:05:11;9.40;99.90
24632;DHT22;59977;48.782;9.190;2023-05-18T04:07:37;9.30;99.90
24632;DHT22;59977;48.782;9.190;2023-05-18T04:10:09;9.30;99.90
24632;DHT22;59977;48.782;9.190;2023-05-18T04:12:35;9.80;99.90
24632;DHT22;59977;48.782;9.190;2023-05-18T04:15:00;9.30;99.90
24632;DHT22;59977;48.782;9.190;2023-05-18T04:17:26;9.30;99.90
24632;DHT22;59977;48.782;9.190;2023-05-18T04:19:52;9.40;99.90
24632;DHT22;59977;48.782;9.190;2023-05-18T04:22:17;9.80;99.90
24632;DHT22;59977;48.782;9.190;2023-05-18T04:24:43;9.50;99.90
24632;DHT22;59977;48.782;9.190;2023-05-18T04:27:12;9.50;99.90
24632;DHT22;59977;48.782;9.190;2023-05-18T04:29:38;9.40;99.90
24632;DHT22;59977;48.782;9.190;2023-05-18T04:32:08;9.40;99.90
24632;DHT22;59977;48.782;9.190;2023-05-18T04:34:35;9.50;99.90
24632;DHT22;59977;48.782;9.190;2023-05-18T04:37:02;9.50;99.90
24632;DHT22;59977;48.782;9.190;2023-05-18T04:39:31;10.30;99.90
24632;DHT22;59977;48.782;9.190;2023-05-18T04:41:57;9.50;99.90
24632;DHT22;59977;48.782;9.190;2023-05-18T04:44:29;9.40;99.90
24632;DHT22;59977;48.782;9.190;2023-05-18T04:46:56;9.30;99.90
24632;DHT22;59977;48.782;9.190;2023-05-18T04:49:22;9.30;99.90
24632;DHT22;59977;48.782;9.190;2023-05-18T04:51:52;9.30;99.90
24632;DHT22;59977;48.782;9.190;2023-05-18T04:54:25;9.40;99.90
24632;DHT22;59977;48.782;9.190;2023-05-18T04:56:51;9.50;99.90
24632;DHT22;59977;48.782;9.190;2023-05-18T04:59:18;9.80;99.90
24632;DHT22;59977;48.782;9.190;2023-05-18T05:01:44;9.40;99.90
24632;DHT22;59977;48.782;9.190;2023-05-18T05:04:10;9.40;99.90
24632;DHT22;59977;48.782;9.190;2023-05-18T05:06:36;9.50;99.90
24632;DHT22;59977;48.782;9.190;2023-05-18T05:09:02;9.60;99.90
24632;DHT22;59977;48.782;9.190;2023-05-18T05:11:28;9.60;99.90
24632;DHT22;59977;48.782;9.190;2023-05-18T05:13:53;9.60;99.90
24632;DHT22;59977;48.782;9.190;2023-05-18T05:16:19;9.70;99.90
24632;DHT22;59977;48.782;9.190;2023-05-18T05:18:45;9.70;99.90
24632;DHT22;59977;48.782;9.190;2023-05-18T05:21:10;9.80;99.90
24632;DHT22;59977;48.782;9.190;2023-05-18T05:23:36;9.70;99.90
24632;DHT22;59977;48.782;9.190;2023-05-18T05:26:01;9.70;99.90
24632;DHT22;59977;48.782;9.190;2023-05-18T05:28:27;9.70;99.90
24632;DHT22;59977;48.782;9.190;2023-05-18T05:30:53;9.80;99.90
24632;DHT22;59977;48.782;9.190;2023-05-18T05:33:18;9.80;99.90
24632;DHT22;59977;48.782;9.190;2023-05-18T05:35:44;9.90;99.90
24632;DHT22;59977;48.782;9.190;2023-05-18T05:38:10;11.00;99.90
24632;DHT22;59977;48.782;9.190;2023-05-18T05:40:35;9.90;99.90
24632;DHT22;59977;48.782;9.190;2023-05-18T05:43:01;9.80;99.90
24632;DHT22;59977;48.782;9.190;2023-05-18T05:45:27;9.80;99.90
24632;DHT22;59977;48.782;9.190;2023-05-18T05:47:53;9.90;99.90
24632;DHT22;59977;48.782;9.190;2023-05-18T05:50:19;10.00;99.90
24632;DHT22;59977;48.782;9.190;2023-05-18T05:52:45;10.00;99.90
24632;DHT22;59977;48.782;9.190;2023-05-18T05:55:10;10.70;99.90
24632;DHT22;59977;48.782;9.190;2023-05-18T05:57:36;10.10;99.90
24632;DHT22;59977;48.782;9.190;2023-05-18T06:00:04;10.60;99.90
24632;DHT22;59977;48.782;9.190;2023-05-18T06:02:30;10.30;99.90
24632;DHT22;59977;48.782;9.190;2023-05-18T06:04:56;10.20;99.90
24632;DHT22;59977;48.782;9.190;2023-05-18T06:07:21;10.30;99.90
24632;DHT22;59977;48.782;9.190;2023-05-18T06:09:47;10.20;99.90
24632;DHT22;59977;48.782;9.190;2023-05-18T06:12:13;11.40;99.90
24632;DHT22;59977;48.782;9.190;2023-05-18T06:14:38;10.30;99.90
24632;DHT22;59977;48.782;9.190;2023-05-18T06:17:04;10.50;99.90
24632;DHT22;59977;48.782;9.190;2023-05-18T06:19:29;10.60;99.90
24632;DHT22;59977;48.782;9.190;2023-05-18T06:21:55;12.00;99.90
24632;DHT22;59977;48.782;9.190;2023-05-18T06:24:21;11.50;99.90
24632;DHT22;59977;48.782;9.190;2023-05-18T06:26:46;10.70;99.90
24632;DHT22;59977;48.782;9.190;2023-05-18T06:29:12;10.80;99.90
24632;DHT22;59977;48.782;9.190;2023-05-18T06:31:38;10.80;99.90
24632;DHT22;59977;48.782;9.190;2023-05-18T06:34:03;11.00;99.90
24632;DHT22;59977;48.782;9.190;2023-05-18T06:36:29;11.00;99.90
24632;DHT22;59977;48.782;9.190;2023-05-18T06:38:56;11.10;99.90
24632;DHT22;59977;48.782;9.190;2023-05-18T06:41:22;11.20;99.90
24632;DHT22;59977;48.782;9.190;2023-05-18T06:43:47;11.20;99.90
24632;DHT22;59977;48.782;9.190;2023-05-18T06:46:20;11.30;99.90
24632;DHT22;59977;48.782;9.190;2023-05-18T06:48:46;11.10;99.90
24632;DHT22;59977;48.782;9.190;2023-05-18T06:51:11;11.10;99.90
24632;DHT22;59977;48.782;9.190;2023-05-18T06:53:37;11.20;99.90
24632;DHT22;59977;48.782;9.190;2023-05-18T06:56:03;11.60;99.90
24632;DHT22;59977;48.782;9.190;2023-05-18T06:58:29;11.30;99.90
24632;DHT22;59977;48.782;9.190;2023-05-18T07:00:54;11.40;99.90
24632;DHT22;59977;48.782;9.190;2023-05-18T07:03:20;11.50;99.90
24632;DHT22;59977;48.782;9.190;2023-05-18T07:05:46;11.50;99.90
24632;DHT22;59977;48.782;9.190;2023-05-18T07:08:11;11.50;99.90
24632;DHT22;59977;48.782;9.190;2023-05-18T07:10:37;11.40;99.90
24632;DHT22;59977;48.782;9.190;2023-05-18T07:13:03;11.50;99.90
24632;DHT22;59977;48.782;9.190;2023-05-18T07:15:28;11.40;99.90
24632;DHT22;59977;48.782;9.190;2023-05-18T07:17:55;11.50;99.90
24632;DHT22;59977;48.782;9.190;2023-05-18T07:20:20;11.70;99.90
24632;DHT22;59977;48.782;9.190;2023-05-18T07:22:46;11.70;99.90
24632;DHT22;59977;48.782;9.190;2023-05-18T07:25:11;11.70;99.90
24632;DHT22;59977;48.782;9.190;2023-05-18T07:27:37;11.80;99.90
24632;DHT22;59977;48.782;9.190;2023-05-18T07:30:03;11.90;99.90
24632;DHT22;59977;48.782;9.190;2023-05-18T07:32:29;12.00;99.90
24632;DHT22;59977;48.782;9.190;2023-05-18T07:34:54;13.60;99.90
24632;DHT22;59977;48.782;9.190;2023-05-18T07:37:20;12.00;99.90
24632;DHT22;59977;48.782;9.190;2023-05-18T07:39:46;12.10;99.90
24632;DHT22;59977;48.782;9.190;2023-05-18T07:42:12;12.10;99.90
24632;DHT22;59977;48.782;9.190;2023-05-18T07:44:37;12.30;99.90
24632;DHT22;59977;48.782;9.190;2023-05-18T07:47:03;12.40;99.90
24632;DHT22;59977;48.782;9.190;2023-05-18T07:49:29;12.50;99.90
24632;DHT22;59977;48.782;9.190;2023-05-18T07:51:54;12.50;99.90
24632;DHT22;59977;48.782;9.190;2023-05-18T07:54:20;12.60;99.90
24632;DHT22;59977;48.782;9.190;2023-05-18T07:56:46;12.70;99.90
24632;DHT22;59977;48.782;9.190;2023-05-18T07:59:12;12.80;99.90
24632;DHT22;59977;48.782;9.190;2023-05-18T08:01:38;13.80;99.90
24632;DHT22;59977;48.782;9.190;2023-05-18T08:04:04;14.70;99.90
24632;DHT22;59977;48.782;9.190;2023-05-18T08:06:29;13.10;99.90
24632;DHT22;59977;48.782;9.190;2023-05-18T08:08:56;13.30;99.90
24632;DHT22;59977;48.782;9.190;2023-05-18T08:11:22;13.20;99.90
24632;DHT22;59977;48.782;9.190;2023-05-18T08:13:48;13.20;99.90
24632;DHT22;59977;48.782;9.190;2023-05-18T08:16:14;15.80;99.90
24632;DHT22;59977;48.782;9.190;2023-05-18T08:18:40;13.50;99.90
24632;DHT22;59977;48.782;9.190;2023-05-18T08:21:06;13.70;99.90
24632;DHT22;59977;48.782;9.190;2023-05-18T08:23:34;13.80;99.90
24632;DHT22;59977;48.782;9.190;2023-05-18T08:26:00;13.70;99.90
24632;DHT22;59977;48.782;9.190;2023-05-18T08:28:28;13.70;99.90
24632;DHT22;59977;48.782;9.190;2023-05-18T08:30:54;13.70;99.90
24632;DHT22;59977;48.782;9.190;2023-05-18T08:33:20;13.70;99.90
24632;DHT22;59977;48.782;9.190;2023-05-18T08:35:45;13.80;99.90
24632;DHT22;59977;48.782;9.190;2023-05-18T08:38:11;14.50;99.90
24632;DHT22;59977;48.782;9.190;2023-05-18T08:43:28;14.00;99.90
24632;DHT22;59977;48.782;9.190;2023-05-18T08:46:09;14.10;99.90
24632;DHT22;59977;48.782;9.190;2023-05-18T08:48:36;14.10;99.90
24632;DHT22;59977;48.782;9.190;2023-05-18T08:51:02;14.40;99.90
24632;DHT22;59977;48.782;9.190;2023-05-18T08:53:28;14.40;99.90
24632;DHT22;59977;48.782;9.190;2023-05-18T08:55:57;13.60;99.90
24632;DHT22;59977;48.782;9.190;2023-05-18T08:58:31;16.60;99.90
24632;DHT22;59977;48.782;9.190;2023-05-18T09:00:59;14.40;99.90
24632;DHT22;59977;48.782;9.190;2023-05-18T09:03:25;14.70;99.90
24632;DHT22;59977;48.782;9.190;2023-05-18T09:05:51;14.70;99.90
24632;DHT22;59977;48.782;9.190;2023-05-18T09:08:18;14.80;99.90
24632;DHT22;59977;48.782;9.190;2023-05-18T09:10:44;15.00;99.90
24632;DHT22;59977;48.782;9.190;2023-05-18T09:13:13;14.90;98.90
24632;DHT22;59977;48.782;9.190;2023-05-18T09:15:39;14.90;99.30
24632;DHT22;59977;48.782;9.190;2023-05-18T09:18:05;14.90;98.70
24632;DHT22;59977;48.782;9.190;2023-05-18T09:20:31;14.90;98.70
24632;DHT22;59977;48.782;9.190;2023-05-18T09:22:58;15.00;98.10
24632;DHT22;59977;48.782;9.190;2023-05-18T09:25:25;15.10;97.50
24632;DHT22;59977;48.782;9.190;2023-05-18T09:27:51;15.20;97.10
24632;DHT22;59977;48.782;9.190;2023-05-18T09:30:17;15.20;96.90
24632;DHT22;59977;48.782;9.190;2023-05-18T09:32:46;15.40;96.30
24632;DHT22;59977;48.782;9.190;2023-05-18T09:35:12;17.40;96.20
24632;DHT22;59977;48.782;9.190;2023-05-18T09:37:40;16.20;95.80
24632;DHT22;59977;48.782;9.190;2023-05-18T09:40:07;15.70;95.40
24632;DHT22;59977;48.782;9.190;2023-05-18T09:42:40;15.60;94.80
24632;DHT22;59977;48.782;9.190;2023-05-18T09:45:19;15.70;94.90
24632;DHT22;59977;48.782;9.190;2023-05-18T09:47:49;15.70;94.30
24632;DHT22;59977;48.782;9.190;2023-05-18T09:50:18;15.90;94.40
24632;DHT22;59977;48.782;9.190;2023-05-18T09:52:44;16.10;93.40
24632;DHT22;59977;48.782;9.190;2023-05-18T09:55:11;16.10;93.30
24632;DHT22;59977;48.782;9.190;2023-05-18T09:57:42;16.10;92.80
24632;DHT22;59977;48.782;9.190;2023-05-18T10:00:09;16.10;92.00
24632;DHT22;59977;48.782;9.190;2023-05-18T10:02:43;16.00;91.80
24632;DHT22;59977;48.782;9.190;2023-05-18T10:05:25;15.90;91.50
24632;DHT22;59977;48.782;9.190;2023-05-18T10:07:53;15.90;91.30
24632;DHT22;59977;48.782;9.190;2023-05-18T10:10:21;15.90;91.50
24632;DHT22;59977;48.782;9.190;2023-05-18T10:12:49;16.10;91.40
24632;DHT22;59977;48.782;9.190;2023-05-18T10:15:17;16.20;90.90
24632;DHT22;59977;48.782;9.190;2023-05-18T10:17:46;16.10;90.20
24632;DHT22;59977;48.782;9.190;2023-05-18T10:20:16;16.00;89.40
24632;DHT22;59977;48.782;9.190;2023-05-18T10:22:45;16.10;90.00
24632;DHT22;59977;48.782;9.190;2023-05-18T10:25:11;16.10;90.10
24632;DHT22;59977;48.782;9.190;2023-05-18T10:27:40;16.10;90.10
24632;DHT22;59977;48.782;9.190;2023-05-18T10:30:07;17.10;90.20
24632;DHT22;59977;48.782;9.190;2023-05-18T10:32:35;16.40;89.20
24632;DHT22;59977;48.782;9.190;2023-05-18T10:35:02;16.40;88.60
24632;DHT22;59977;48.782;9.190;2023-05-18T10:37:30;16.40;88.30
24632;DHT22;59977;48.782;9.190;2023-05-18T10:39:59;16.30;88.40
24632;DHT22;59977;48.782;9.190;2023-05-18T10:42:25;16.30;88.00
24632;DHT22;59977;48.782;9.190;2023-05-18T10:44:56;16.20;87.30
24632;DHT22;59977;48.782;9.190;2023-05-18T10:47:23;15.80;87.20
24632;DHT22;59977;48.782;9.190;2023-05-18T10:49:50;16.20;88.20
24632;DHT22;59977;48.782;9.190;2023-05-18T10:52:17;16.20;88.70
24632;DHT22;59977;48.782;9.190;2023-05-18T10:54:43;16.30;87.20
24632;DHT22;59977;48.782;9.190;2023-05-18T10:57:17;16.40;87.10
24632;DHT22;59977;48.782;9.190;2023-05-18T10:59:44;16.80;86.60
24632;DHT22;59977;48.782;9.190;2023-05-18T11:02:13;16.40;85.90
24632;DHT22;59977;48.782;9.190;2023-05-18T11:04:39;16.30;85.70
24632;DHT22;59977;48.782;9.190;2023-05-18T11:07:09;16.40;86.30
24632;DHT22;59977;48.782;9.190;2023-05-18T11:09:35;16.40;84.10
24632;DHT22;59977;48.782;9.190;2023-05-18T11:12:01;16.80;85.00
24632;DHT22;59977;48.782;9.190;2023-05-18T11:14:29;16.60;84.90
24632;DHT22;59977;48.782;9.190;2023-05-18T11:17:14;16.60;83.90
24632;DHT22;59977;48.782;9.190;2023-05-18T11:27:57;16.90;81.30
24632;DHT22;59977;48.782;9.190;2023-05-18T11:38:20;17.00;81.10
24632;DHT22;59977;48.782;9.190;2023-05-18T11:40:47;17.00;81.10
24632;DHT22;59977;48.782;9.190;2023-05-18T11:43:23;17.00;80.70
24632;DHT22;59977;48.782;9.190;2023-05-18T11:45:56;17.00;79.90
24632;DHT22;59977;48.782;9.190;2023-05-18T11:48:26;17.00;79.90
24632;DHT22;59977;48.782;9.190;2023-05-18T11:50:55;17.10;79.40
24632;DHT22;59977;48.782;9.190;2023-05-18T11:53:26;17.20;79.50
24632;DHT22;59977;48.782;9.190;2023-05-18T11:55:52;17.20;79.60
24632;DHT22;59977;48.782;9.190;2023-05-18T11:58:28;17.30;79.50
24632;DHT22;59977;48.782;9.190;2023-05-18T12:00:54;17.40;78.70
24632;DHT22;59977;48.782;9.190;2023-05-18T12:03:23;17.40;77.70
24632;DHT22;59977;48.782;9.190;2023-05-18T12:05:50;15.10;75.30
24632;DHT22;59977;48.782;9.190;2023-05-18T12:08:19;18.90;79.70
24632;DHT22;59977;48.782;9.190;2023-05-18T12:10:45;17.40;78.10
24632;DHT22;59977;48.782;9.190;2023-05-18T12:13:13;18.40;79.00
24632;DHT22;59977;48.782;9.190;2023-05-18T12:15:39;17.40;77.10
24632;DHT22;59977;48.782;9.190;2023-05-18T12:18:05;17.50;76.50
24632;DHT22;59977;48.782;9.190;2023-05-18T12:20:31;17.80;77.60
24632;DHT22;59977;48.782;9.190;2023-05-18T12:22:57;18.00;76.40
24632;DHT22;59977;48.782;9.190;2023-05-18T12:25:25;18.10;76.00
24632;DHT22;59977;48.782;9.190;2023-05-18T12:27:53;18.20;75.40
24632;DHT22;59977;48.782;9.190;2023-05-18T12:30:26;19.50;76.00
24632;DHT22;59977;48.782;9.190;2023-05-18T12:32:59;18.40;75.20
24632;DHT22;59977;48.782;9.190;2023-05-18T12:35:28;18.50;73.90
24632;DHT22;59977;48.782;9.190;2023-05-18T12:37:55;18.50;74.50
24632;DHT22;59977;48.782;9.190;2023-05-18T12:40:23;18.30;73.80
24632;DHT22;59977;48.782;9.190;2023-05-18T12:42:55;18.50;73.90
24632;DHT22;59977;48.782;9.190;2023-05-18T12:45:23;18.40;73.50
24632;DHT22;59977;48.782;9.190;2023-05-18T12:47:50;19.00;73.90
24632;DHT22;59977;48.782;9.190;2023-05-18T12:50:23;19.30;73.40
24632;DHT22;59977;48.782;9.190;2023-05-18T12:52:53;19.50;71.30
24632;DHT22;59977;48.782;9.190;2023-05-18T12:55:20;19.60;69.50
24632;DHT22;59977;48.782;9.190;2023-05-18T12:58:10;19.80;70.00
24632;DHT22;59977;48.782;9.190;2023-05-18T13:00:42;19.90;68.50
24632;DHT22;59977;48.782;9.190;2023-05-18T13:03:09;20.20;67.70
24632;DHT22;59977;48.782;9.190;2023-05-18T13:05:36;20.20;68.10
24632;DHT22;59977;48.782;9.190;2023-05-18T13:08:02;19.80;69.30
24632;DHT22;59977;48.782;9.190;2023-05-18T13:10:29;19.80;70.20
24632;DHT22;59977;48.782;9.190;2023-05-18T13:12:56;20.00;67.30
24632;DHT22;59977;48.782;9.190;2023-05-18T13:15:35;20.40;67.60
24632;DHT22;59977;48.782;9.190;2023-05-18T13:18:05;20.60;64.90
24632;DHT22;59977;48.782;9.190;2023-05-18T13:20:46;20.20;66.50
24632;DHT22;59977;48.782;9.190;2023-05-18T13:23:17;21.10;64.00
24632;DHT22;59977;48.782;9.190;2023-05-18T13:25:43;19.20;63.30
24632;DHT22;59977;48.782;9.190;2023-05-18T13:28:38;21.50;63.70
24632;DHT22;59977;48.782;9.190;2023-05-18T13:31:04;21.10;63.10
24632;DHT22;59977;48.782;9.190;2023-05-18T13:36:38;20.20;62.50
24632;DHT22;59977;48.782;9.190;2023-05-18T13:39:04;21.30;62.50
24632;DHT22;59977;48.782;9.190;2023-05-18T13:41:31;21.90;61.60
24632;DHT22;59977;48.782;9.190;2023-05-18T13:43:57;22.10;59.10
24632;DHT22;59977;48.782;9.190;2023-05-18T13:46:23;22.90;58.20
24632;DHT22;59977;48.782;9.190;2023-05-18T13:48:48;23.50;57.00
24632;DHT22;59977;48.782;9.190;2023-05-18T13:51:14;23.60;54.50
24632;DHT22;59977;48.782;9.190;2023-05-18T13:53:41;23.10;55.20
24632;DHT22;59977;48.782;9.190;2023-05-18T13:56:07;22.40;55.60
24632;DHT22;59977;48.782;9.190;2023-05-18T13:58:33;21.80;56.60
24632;DHT22;59977;48.782;9.190;2023-05-18T14:01:00;21.50;57.00
24632;DHT22;59977;48.782;9.190;2023-05-18T14:03:28;21.50;56.10
24632;DHT22;59977;48.782;9.190;2023-05-18T14:05:54;21.90;56.00
24632;DHT22;59977;48.782;9.190;2023-05-18T14:08:19;22.20;56.30
24632;DHT22;59977;48.782;9.190;2023-05-18T14:10:45;22.20;56.40
24632;DHT22;59977;48.782;9.190;2023-05-18T14:13:10;22.10;56.40
24632;DHT22;59977;48.782;9.190;2023-05-18T14:15:36;22.10;56.40
24632;DHT22;59977;48.782;9.190;2023-05-18T14:18:02;22.20;56.20
24632;DHT22;59977;48.782;9.190;2023-05-18T14:20:27;22.50;54.80
24632;DHT22;59977;48.782;9.190;2023-05-18T14:22:54;22.60;54.70
24632;DHT22;59977;48.782;9.190;2023-05-18T14:25:19;22.40;54.50
24632;DHT22;59977;48.782;9.190;2023-05-18T14:27:45;23.00;53.90
24632;DHT22;59977;48.782;9.190;2023-05-18T14:30:11;23.70;53.40
24632;DHT22;59977;48.782;9.190;2023-05-18T14:32:37;24.10;51.90
24632;DHT22;59977;48.782;9.190;2023-05-18T14:35:03;23.80;50.50
24632;DHT22;59977;48.782;9.190;2023-05-18T14:37:29;22.80;52.20
24632;DHT22;59977;48.782;9.190;2023-05-18T14:39:54;22.70;52.60
24632;DHT22;59977;48.782;9.190;2023-05-18T14:42:20;22.30;52.20
24632;DHT22;59977;48.782;9.190;2023-05-18T14:44:46;21.70;53.30
24632;DHT22;59977;48.782;9.190;2023-05-18T14:47:11;21.60;54.40
24632;DHT22;59977;48.782;9.190;2023-05-18T14:49:37;22.50;52.70
24632;DHT22;59977;48.782;9.190;2023-05-18T14:52:08;21.90;52.50
24632;DHT22;59977;48.782;9.190;2023-05-18T14:54:34;22.20;53.00
24632;DHT22;59977;48.782;9.190;2023-05-18T14:57:00;22.80;51.90
24632;DHT22;59977;48.782;9.190;2023-05-18T14:59:26;23.00;51.80
24632;DHT22;59977;48.782;9.190;2023-05-18T15:01:52;23.60;51.10
24632;DHT22;59977;48.782;9.190;2023-05-18T15:04:17;24.30;50.70
24632;DHT22;59977;48.782;9.190;2023-05-18T15:06:44;25.10;49.40
24632;DHT22;59977;48.782;9.190;2023-05-18T15:09:09;24.80;47.90
24632;DHT22;59977;48.782;9.190;2023-05-18T15:11:35;24.00;47.70
24632;DHT22;59977;48.782;9.190;2023-05-18T15:14:01;23.00;49.00
24632;DHT22;59977;48.782;9.190;2023-05-18T15:16:26;22.30;50.20
24632;DHT22;59977;48.782;9.190;2023-05-18T15:18:52;21.80;51.40
24632;DHT22;59977;48.782;9.190;2023-05-18T15:21:17;21.30;52.20
24632;DHT22;59977;48.782;9.190;2023-05-18T15:23:43;21.10;52.80
24632;DHT22;59977;48.782;9.190;2023-05-18T15:26:08;20.80;53.30
24632;DHT22;59977;48.782;9.190;2023-05-18T15:28:34;21.80;54.50
24632;DHT22;59977;48.782;9.190;2023-05-18T15:31:00;20.50;53.70
24632;DHT22;59977;48.782;9.190;2023-05-18T15:33:25;20.50;53.90
24632;DHT22;59977;48.782;9.190;2023-05-18T15:35:51;20.50;54.40
24632;DHT22;59977;48.782;9.190;2023-05-18T15:38:16;20.50;54.30
24632;DHT22;59977;48.782;9.190;2023-05-18T15:40:42;20.60;54.60
24632;DHT22;59977;48.782;9.190;2023-05-18T15:43:11;20.60;54.60
24632;DHT22;59977;48.782;9.190;2023-05-18T15:45:36;20.60;54.90
24632;DHT22;59977;48.782;9.190;2023-05-18T15:48:02;20.50;55.20
24632;DHT22;59977;48.782;9.190;2023-05-18T15:50:28;20.30;55.70
24632;DHT22;59977;48.782;9.190;2023-05-18T15:52:53;20.20;56.40
24632;DHT22;59977;48.782;9.190;2023-05-18T15:55:19;20.00;56.80
24632;DHT22;59977;48.782;9.190;2023-05-18T15:57:45;19.90;56.30
24632;DHT22;59977;48.782;9.190;2023-05-18T16:00:11;19.90;57.30
24632;DHT22;59977;48.782;9.190;2023-05-18T16:02:38;19.80;56.80